Time;durP1;ratioP1;P1;durP2;ratioP2;P2;SDS_P1;SDS_P2;PMS_P1;PMS_P2;Temp;Humidity;BMP_temperature;BMP_pressure;BME280_temperature;BME280_humidity;BME280_pressure;Samples;Min_cycle;Max_cycle;Signal;HPM_P1;HPM_P2
2023/08/10 00:00:51;;;;;;;9.50;4.53;;;;;;;17.47;68.43;100728.27;1662218;85;21073;-65
2023/08/10 00:03:20;;;;;;;6.72;3.98;;;;;;;17.44;68.80;100731.50;1662342;85;21607;-63
2023/08/10 00:05:50;;;;;;;7.55;4.35;;;;;;;17.41;69.16;100728.66;1662322;86;21077;-65
2023/08/10 00:08:19;;;;;;;9.90;4.70;;;;;;;17.45;69.31;100722.11;1662265;85;21089;-65
2023/08/10 00:10:50;;;;;;;12.40;4.83;;;;;;;17.44;69.46;100724.03;1662366;85;21041;-64
2023/08/10 00:13:19;;;;;;;7.85;4.35;;;;;;;17.44;69.62;100725.96;1661636;86;21076;-62
2023/08/10 00:15:48;;;;;;;10.95;4.67;;;;;;;17.44;69.65;100723.19;1661875;85;21010;-64
2023/08/10 00:18:17;;;;;;;9.35;4.60;;;;;;;17.45;69.73;100726.27;1661729;86;21485;-64
2023/08/10 00:20:47;;;;;;;11.70;4.53;;;;;;;17.40;69.87;100728.36;1661880;86;21073;-64
2023/08/10 00:23:16;;;;;;;7.72;4.12;;;;;;;17.37;70.08;100730.21;1661924;86;21047;-64
2023/08/10 00:25:45;;;;;;;7.62;4.40;;;;;;;17.36;70.30;100724.37;1661908;86;21468;-64
2023/08/10 00:28:15;;;;;;;9.55;4.78;;;;;;;17.36;70.49;100738.22;1661691;85;21101;-64
2023/08/10 00:30:46;;;;;;;7.37;4.00;;;;;;;17.38;70.57;100729.67;1661895;86;21069;-64
2023/08/10 00:33:15;;;;;;;7.22;4.45;;;;;;;17.41;70.65;100730.05;1661595;85;21474;-64
2023/08/10 00:35:47;;;;;;;8.58;4.42;;;;;;;17.42;70.75;100740.05;1662078;85;21500;-64
2023/08/10 00:38:18;;;;;;;7.97;4.42;;;;;;;17.40;70.85;100738.05;1661889;85;21045;-63
2023/08/10 00:40:47;;;;;;;9.38;4.58;;;;;;;17.37;70.97;100739.06;1661889;86;21081;-63
2023/08/10 00:43:18;;;;;;;9.60;4.55;;;;;;;17.34;71.12;100734.84;1661751;86;21484;-64
2023/08/10 00:45:47;;;;;;;8.60;4.67;;;;;;;17.34;71.30;100733.45;1661850;85;21013;-64
2023/08/10 00:48:16;;;;;;;7.87;4.35;;;;;;;17.33;71.50;100737.84;1662050;85;21082;-63
2023/08/10 00:50:45;;;;;;;10.10;4.55;;;;;;;17.34;71.68;100736.76;1661886;86;21065;-64
2023/08/10 00:53:16;;;;;;;7.87;4.45;;;;;;;17.36;71.77;100740.14;1661632;86;21065;-64
2023/08/10 00:55:53;;;;;;;11.30;4.85;;;;;;;17.37;71.82;100744.06;1661647;86;21124;-63
2023/08/10 00:58:20;;;;;;;10.40;4.80;;;;;;;17.34;71.87;100740.91;1661819;85;21057;-65
2023/08/10 01:00:49;;;;;;;10.18;4.53;;;;;;;17.34;72.02;100742.30;1661719;86;21029;-64
2023/08/10 01:03:19;;;;;;;9.20;4.70;;;;;;;17.30;72.14;100749.39;1688108;85;21074;-65
2023/08/10 01:06:29;;;;;;;9.75;4.78;;;;;;;17.28;72.30;100748.78;1661724;86;21057;-65
2023/08/10 01:09:09;;;;;;;10.60;4.50;;;;;;;17.24;72.50;100753.94;1661809;85;21081;-64
2023/08/10 01:11:45;;;;;;;8.55;4.42;;;;;;;17.21;72.79;100751.63;1661987;86;21045;-63
2023/08/10 01:14:46;;;;;;;10.43;4.78;;;;;;;17.21;72.96;100755.78;1631809;86;21081;-64
2023/08/10 01:17:20;;;;;;;8.00;4.40;;;;;;;17.17;72.95;100747.64;1661769;85;21104;-63
2023/08/10 01:19:50;;;;;;;9.50;4.28;;;;;;;17.13;73.09;100759.41;1661894;85;21014;-64
2023/08/10 01:22:30;;;;;;;8.45;4.15;;;;;;;17.08;73.29;100760.11;1661905;86;21077;-64
2023/08/10 01:25:05;;;;;;;8.85;4.67;;;;;;;17.05;73.34;100761.95;1661687;85;21080;-63
2023/08/10 01:27:37;;;;;;;;;;;;;;;17.01;73.54;100758.80;1664263;85;21058;-63
2023/08/10 01:30:08;;;;;;;8.50;4.10;;;;;;;17.00;73.74;100758.50;1661765;85;20200;-63
2023/08/10 01:32:37;;;;;;;8.18;4.42;;;;;;;16.96;73.98;100761.95;1661866;85;21081;-64
2023/08/10 01:35:10;;;;;;;8.03;4.03;;;;;;;16.96;74.18;100757.80;1661812;85;21132;-64
2023/08/10 01:37:38;;;;;;;7.85;4.42;;;;;;;16.96;74.18;100768.34;1661876;86;21045;-63
2023/08/10 01:40:12;;;;;;;7.67;4.03;;;;;;;16.94;74.16;100767.72;1661882;86;21100;-63
2023/08/10 01:42:44;;;;;;;8.45;4.40;;;;;;;16.91;74.23;100764.57;1661697;86;21069;-63
2023/08/10 01:45:14;;;;;;;8.25;4.25;;;;;;;16.92;74.33;100774.03;1661780;86;21118;-63
2023/08/10 01:47:57;;;;;;;6.22;3.90;;;;;;;16.91;74.29;100772.87;1688032;85;21081;-64
2023/08/10 01:50:29;;;;;;;6.95;4.05;;;;;;;16.86;74.27;100774.92;1661917;85;21085;-64
2023/08/10 01:53:04;;;;;;;6.60;4.00;;;;;;;16.81;74.34;100777.53;1661691;86;21493;-64
2023/08/10 01:55:35;;;;;;;8.38;4.53;;;;;;;16.81;74.48;100780.30;1661695;86;21076;-63
2023/08/10 01:58:05;;;;;;;7.37;4.30;;;;;;;16.83;74.49;100773.15;1661637;86;21076;-64
2023/08/10 02:00:37;;;;;;;12.93;4.28;;;;;;;16.80;74.48;100779.45;1661840;86;21076;-64
2023/08/10 02:03:08;;;;;;;8.88;3.90;;;;;;;16.76;74.56;100780.98;1661565;86;21045;-63
2023/08/10 02:05:37;;;;;;;10.25;3.83;;;;;;;16.73;74.54;100784.75;1661655;86;21076;-64
2023/08/10 02:08:07;;;;;;;9.13;4.30;;;;;;;16.71;74.67;100788.28;1661898;85;21065;-64
2023/08/10 02:10:36;;;;;;;9.13;4.47;;;;;;;16.70;74.73;100785.20;1661921;85;21102;-63
2023/08/10 02:13:06;;;;;;;7.53;4.05;;;;;;;16.69;74.82;100791.28;1661931;86;21089;-64
2023/08/10 02:15:34;;;;;;;11.60;4.33;;;;;;;16.65;74.91;100791.42;1662069;86;21599;-63
2023/08/10 02:18:04;;;;;;;7.03;4.22;;;;;;;16.61;75.09;100792.08;1662264;86;21077;-64
2023/08/10 02:20:33;;;;;;;5.75;3.98;;;;;;;16.58;75.20;100789.77;1662363;86;21066;-64
2023/08/10 02:23:01;;;;;;;9.10;4.62;;;;;;;16.57;75.33;100797.22;1662441;85;21045;-64
2023/08/10 02:25:30;;;;;;;8.53;4.62;;;;;;;16.59;75.36;100796.45;1662387;86;21065;-64
2023/08/10 02:27:59;;;;;;;9.05;4.58;;;;;;;16.61;75.30;100801.22;1662158;86;21050;-63
2023/08/10 02:30:27;;;;;;;5.47;3.85;;;;;;;16.63;75.29;100802.38;1662369;86;21073;-63
2023/08/10 02:32:56;;;;;;;7.60;4.55;;;;;;;16.62;75.32;100807.06;1662267;86;21053;-64
2023/08/10 02:35:25;;;;;;;7.53;4.08;;;;;;;16.63;75.27;100807.91;1662107;86;21073;-65
2023/08/10 02:37:54;;;;;;;6.65;4.17;;;;;;;16.61;75.20;100798.99;1662146;86;21244;-63
2023/08/10 02:40:24;;;;;;;7.62;4.10;;;;;;;16.56;75.29;100802.98;1662263;86;21053;-63
2023/08/10 02:42:55;;;;;;;7.92;4.40;;;;;;;16.55;75.44;100804.90;1682087;84;21491;-64
2023/08/10 02:45:25;;;;;;;9.13;4.62;;;;;;;16.51;75.53;100806.42;1662342;86;21517;-64
2023/08/10 02:47:55;;;;;;;9.65;4.70;;;;;;;16.48;75.76;100805.50;1662313;86;21085;-64
2023/08/10 02:50:24;;;;;;;11.35;4.10;;;;;;;16.48;75.91;100811.03;1662212;85;21536;-63
2023/08/10 02:52:55;;;;;;;11.45;4.17;;;;;;;16.48;76.01;100811.03;1662394;85;21017;-64
2023/08/10 02:55:24;;;;;;;8.10;4.05;;;;;;;16.50;75.99;100814.42;1662264;86;21045;-64
2023/08/10 02:57:53;;;;;;;9.70;4.47;;;;;;;16.49;75.98;100809.95;1662423;86;21478;-64
2023/08/10 03:00:23;;;;;;;9.50;4.35;;;;;;;16.48;75.96;100817.95;1662349;86;21061;-64
2023/08/10 03:02:51;;;;;;;7.25;4.28;;;;;;;16.47;76.18;100820.41;1662227;86;21061;-63
2023/08/10 03:05:21;;;;;;;12.90;4.33;;;;;;;16.45;76.34;100813.71;1683020;84;21184;-64
2023/08/10 03:07:51;;;;;;;6.80;4.40;;;;;;;16.46;76.41;100815.41;1683065;84;21519;-65
2023/08/10 03:10:21;;;;;;;10.35;4.70;;;;;;;16.45;76.54;100821.16;1662205;86;21446;-63
2023/08/10 03:12:50;;;;;;;8.15;4.62;;;;;;;16.45;76.74;100826.16;1662087;84;21568;-64
2023/08/10 03:15:22;;;;;;;8.78;4.90;;;;;;;16.49;76.87;100826.55;1662402;86;21871;-63
2023/08/10 03:17:51;;;;;;;10.20;4.87;;;;;;;16.52;76.92;100829.41;1638451;86;21077;-64
2023/08/10 03:20:20;;;;;;;10.85;5.05;;;;;;;16.55;76.87;100829.80;1662181;85;21088;-64
2023/08/10 03:22:48;;;;;;;10.45;4.75;;;;;;;16.53;76.93;100830.56;1662548;86;21061;-67
2023/08/10 03:25:17;;;;;;;14.35;5.35;;;;;;;16.50;77.03;100832.39;1662407;86;21097;-63
2023/08/10 03:27:49;;;;;;;10.45;4.50;;;;;;;16.49;77.16;100834.31;1662415;86;21073;-64
2023/08/10 03:30:20;;;;;;;10.15;4.47;;;;;;;16.49;77.31;100828.78;1662267;86;21046;-64
2023/08/10 03:32:49;;;;;;;11.18;5.17;;;;;;;16.54;77.41;100833.64;1662389;86;21058;-67
2023/08/10 03:35:18;;;;;;;14.73;5.42;;;;;;;16.60;77.41;100834.65;1662413;86;21018;-64
2023/08/10 03:37:49;;;;;;;12.20;4.80;;;;;;;16.63;77.46;100833.66;1662409;86;21070;-64
2023/08/10 03:40:18;;;;;;;11.05;4.97;;;;;;;16.69;77.44;100834.70;1662343;85;21076;-65
2023/08/10 03:42:48;;;;;;;11.83;5.15;;;;;;;16.73;77.33;100831.80;1662361;85;21082;-63
2023/08/10 03:45:17;;;;;;;13.53;5.83;;;;;;;16.79;77.02;100827.58;1662409;86;21122;-64
2023/08/10 03:47:46;;;;;;;11.53;5.20;;;;;;;16.85;76.65;100826.35;1662458;85;21049;-65
2023/08/10 03:50:15;;;;;;;9.88;5.42;;;;;;;16.92;76.38;100833.55;1662364;86;21059;-64
2023/08/10 03:52:45;;;;;;;8.83;5.12;;;;;;;16.97;75.97;100837.01;1662404;85;21033;-63
2023/08/10 03:55:15;;;;;;;8.95;5.85;;;;;;;17.03;75.73;100836.09;1662181;85;21065;-63
2023/08/10 03:57:44;;;;;;;12.23;5.50;;;;;;;17.10;75.41;100836.86;1682893;84;21079;-64
2023/08/10 04:00:16;;;;;;;9.78;5.75;;;;;;;17.14;75.28;100835.33;1659175;86;21112;-64
2023/08/10 04:02:46;;;;;;;17.05;6.60;;;;;;;17.16;75.22;100839.25;1661782;85;21529;-64
2023/08/10 04:05:17;;;;;;;18.62;9.10;;;;;;;17.16;75.26;100840.09;1682083;85;21461;-65
2023/08/10 04:07:47;;;;;;;14.63;6.67;;;;;;;17.19;75.37;100834.64;1662539;85;21057;-65
2023/08/10 04:10:17;;;;;;;11.53;6.15;;;;;;;17.26;75.26;100834.87;1662449;86;21276;-65
2023/08/10 04:12:47;;;;;;;11.90;5.97;;;;;;;17.31;75.05;100843.33;1663671;84;21085;-64
2023/08/10 04:15:17;;;;;;;12.18;6.08;;;;;;;17.38;74.87;100839.94;1666686;86;21023;-64
2023/08/10 04:17:46;;;;;;;10.40;6.53;;;;;;;17.48;74.53;100837.16;1666705;85;21029;-65
2023/08/10 04:20:16;;;;;;;14.05;6.72;;;;;;;17.57;74.30;100834.41;1666481;85;21037;-63
2023/08/10 04:22:45;;;;;;;20.57;8.28;;;;;;;17.64;74.06;100834.63;1685473;85;21013;-65
2023/08/10 04:25:14;;;;;;;14.63;6.35;;;;;;;17.73;73.75;100832.41;1666657;85;21040;-64
2023/08/10 04:27:43;;;;;;;13.05;6.65;;;;;;;17.80;73.31;100840.09;1666516;86;21347;-64
2023/08/10 04:30:14;;;;;;;15.75;6.35;;;;;;;17.86;73.06;100837.77;1666639;86;21073;-64
2023/08/10 04:32:43;;;;;;;13.48;6.47;;;;;;;17.94;72.80;100841.59;1666532;86;21037;-66
2023/08/10 04:35:15;;;;;;;16.15;6.92;;;;;;;18.01;72.51;100838.19;1666469;86;21485;-65
2023/08/10 04:37:44;;;;;;;17.25;7.42;;;;;;;18.09;72.30;100832.00;1666674;86;21068;-64
2023/08/10 04:40:23;;;;;;;16.30;6.95;;;;;;;18.16;72.22;100832.73;1666329;86;21092;-65
2023/08/10 04:43:14;;;;;;;12.37;6.60;;;;;;;18.25;72.14;100838.28;1666478;85;21053;-64
2023/08/10 04:45:44;;;;;;;11.70;6.10;;;;;;;18.31;72.00;100838.17;1756389;82;21458;-64
2023/08/10 04:48:15;;;;;;;9.43;5.78;;;;;;;18.41;71.70;100829.27;1756309;82;21502;-65
2023/08/10 04:50:45;;;;;;;11.12;6.15;;;;;;;18.49;71.39;100835.01;1727126;82;21062;-66
2023/08/10 04:53:15;;;;;;;16.20;7.03;;;;;;;18.56;71.21;100831.03;1756345;82;21066;-64
2023/08/10 04:55:45;;;;;;;13.83;7.80;;;;;;;18.66;71.08;100834.09;1756324;82;21066;-65
2023/08/10 04:58:15;;;;;;;14.53;6.95;;;;;;;18.78;70.86;100841.03;1756511;82;21022;-65
2023/08/10 05:00:46;;;;;;;12.53;6.53;;;;;;;18.87;70.53;100832.68;1756533;82;21019;-66
2023/08/10 05:03:16;;;;;;;14.50;6.67;;;;;;;19.01;70.10;100837.44;1756618;82;21078;-65
2023/08/10 05:05:46;;;;;;;19.12;8.40;;;;;;;19.13;69.66;100841.59;1756505;82;21065;-64
2023/08/10 05:08:16;;;;;;;19.87;7.95;;;;;;;19.28;68.81;100843.32;1756365;82;21089;-65
2023/08/10 05:10:46;;;;;;;10.30;5.62;;;;;;;19.44;67.79;100841.72;1756396;82;21454;-65
2023/08/10 05:13:16;;;;;;;9.18;5.08;;;;;;;19.59;66.58;100841.55;1756501;82;21035;-65
2023/08/10 05:15:45;;;;;;;13.20;6.67;;;;;;;19.73;64.82;100843.50;1756368;81;21165;-65
2023/08/10 05:18:14;;;;;;;12.85;7.40;;;;;;;19.87;63.66;100846.83;1756480;81;21094;-65
2023/08/10 05:20:46;;;;;;;10.55;4.70;;;;;;;19.99;63.48;100845.39;1756455;82;21163;-65
2023/08/10 05:23:16;;;;;;;11.38;4.75;;;;;;;20.08;61.90;100848.06;1756362;82;21513;-65
2023/08/10 05:25:47;;;;;;;7.20;3.77;;;;;;;20.21;59.55;100854.74;1756428;82;21046;-64
2023/08/10 05:28:16;;;;;;;7.92;3.60;;;;;;;20.33;58.43;100851.34;1756251;82;21230;-64
2023/08/10 05:30:45;;;;;;;9.00;4.00;;;;;;;20.47;57.20;100848.56;1756487;82;21068;-65
2023/08/10 05:33:14;;;;;;;11.38;3.98;;;;;;;20.63;56.27;100848.82;1756408;82;21352;-64
2023/08/10 05:35:43;;;;;;;7.85;3.58;;;;;;;20.76;54.04;100847.93;1756332;82;21550;-65
2023/08/10 05:38:13;;;;;;;11.30;3.83;;;;;;;20.89;54.13;100853.73;1756476;82;21038;-65
2023/08/10 05:40:42;;;;;;;8.38;3.90;;;;;;;20.99;53.08;100853.89;1756302;82;21026;-65
2023/08/10 05:43:11;;;;;;;8.35;3.45;;;;;;;21.07;52.31;100852.61;1756340;82;21035;-64
2023/08/10 05:45:42;;;;;;;5.37;2.85;;;;;;;21.11;51.84;100853.23;1743244;81;21047;-64
2023/08/10 05:48:14;;;;;;;8.40;3.25;;;;;;;21.16;51.39;100858.03;1742686;82;21067;-64
2023/08/10 05:50:45;;;;;;;11.95;3.40;;;;;;;21.19;51.21;100854.19;1742892;82;21023;-64
2023/08/10 05:53:15;;;;;;;7.53;3.37;;;;;;;21.23;51.11;100855.09;1742862;82;21435;-64
2023/08/10 05:55:44;;;;;;;12.63;3.52;;;;;;;21.25;50.84;100852.89;1742928;82;21240;-64
2023/08/10 05:58:13;;;;;;;7.33;3.30;;;;;;;21.26;50.62;100858.77;1743044;82;21043;-64
2023/08/10 06:00:42;;;;;;;8.53;3.20;;;;;;;21.27;50.35;100859.05;1742993;82;21493;-66
2023/08/10 06:03:11;;;;;;;7.60;3.02;;;;;;;21.28;50.52;100864.37;1744345;82;21015;-65
2023/08/10 06:05:42;;;;;;;11.60;3.25;;;;;;;21.30;50.05;100856.59;1743035;82;21045;-65
2023/08/10 06:08:12;;;;;;;8.15;3.08;;;;;;;21.32;49.87;100864.70;1742803;82;21011;-63
2023/08/10 06:10:42;;;;;;;10.40;3.15;;;;;;;21.33;49.45;100867.78;1743033;82;21035;-65
2023/08/10 06:13:12;;;;;;;7.83;3.30;;;;;;;21.32;49.17;100862.76;1744377;82;21463;-65
2023/08/10 06:15:41;;;;;;;6.90;3.50;;;;;;;21.33;49.19;100863.59;1742914;82;21067;-65
2023/08/10 06:18:11;;;;;;;8.28;3.10;;;;;;;21.34;48.79;100858.31;1742967;82;21059;-64
2023/08/10 06:20:41;;;;;;;5.00;2.60;;;;;;;21.36;48.41;100865.88;1742926;82;21070;-63
2023/08/10 06:23:10;;;;;;;6.85;2.90;;;;;;;21.36;48.23;100869.50;1742771;82;21086;-65
2023/08/10 06:25:43;;;;;;;7.87;2.90;;;;;;;21.38;48.24;100859.48;1742832;82;21007;-65
2023/08/10 06:28:13;;;;;;;10.20;3.47;;;;;;;21.43;48.02;100855.38;1742838;82;21031;-65
2023/08/10 06:30:42;;;;;;;9.95;3.52;;;;;;;21.47;48.15;100859.36;1742896;82;21529;-65
2023/08/10 06:33:13;;;;;;;7.35;2.98;;;;;;;21.53;47.79;100849.96;1743067;82;21027;-65
2023/08/10 06:35:42;;;;;;;9.43;3.77;;;;;;;21.73;47.33;100847.42;1742836;82;21466;-65
2023/08/10 06:38:12;;;;;;;4.75;3.10;;;;;;;22.07;47.33;100841.69;1743005;82;21443;-64
2023/08/10 06:40:41;;;;;;;8.35;2.70;;;;;;;22.54;45.91;100839.66;1742961;82;21007;-64
2023/08/10 06:43:10;;;;;;;7.37;2.80;;;;;;;22.98;44.45;100839.78;1743040;82;21046;-64
2023/08/10 06:45:44;;;;;;;6.37;2.50;;;;;;;23.43;43.02;100834.75;1749346;82;21043;-64
2023/08/10 06:48:13;;;;;;;11.90;3.00;;;;;;;23.88;41.83;100848.95;1751521;82;21030;-64
2023/08/10 06:50:44;;;;;;;6.20;2.20;;;;;;;24.36;40.64;100845.47;1751451;82;21003;-65
2023/08/10 06:53:16;;;;;;;6.00;3.72;;;;;;;24.74;38.92;100839.90;1751444;82;21027;-64
2023/08/10 06:55:45;;;;;;;3.12;2.20;;;;;;;25.09;38.02;100847.45;1751730;82;21094;-64
2023/08/10 06:58:14;;;;;;;5.00;2.30;;;;;;;25.33;37.26;100840.66;1751589;82;21029;-65
2023/08/10 07:00:46;;;;;;;11.55;5.35;;;;;;;25.56;36.84;100844.26;1746604;82;21452;-64
2023/08/10 07:03:15;;;;;;;9.98;2.95;;;;;;;25.71;36.39;100841.14;1751390;82;21090;-64
2023/08/10 07:05:44;;;;;;;6.67;2.60;;;;;;;25.86;36.40;100845.28;1751519;82;21035;-64
2023/08/10 07:08:14;;;;;;;8.78;4.40;;;;;;;26.09;36.72;100840.97;1751486;82;21015;-65
2023/08/10 07:10:44;;;;;;;3.87;2.20;;;;;;;26.46;35.54;100845.51;1751459;82;21545;-63
2023/08/10 07:13:13;;;;;;;4.22;2.35;;;;;;;26.71;34.33;100843.08;1751260;82;21478;-64
2023/08/10 07:15:44;;;;;;;5.83;2.50;;;;;;;26.89;34.30;100842.92;1751251;82;21806;-65
2023/08/10 07:18:16;;;;;;;3.83;2.22;;;;;;;27.23;33.44;100845.69;1746752;81;21082;-63
2023/08/10 07:20:46;;;;;;;4.65;2.25;;;;;;;27.37;33.17;100837.41;1751300;82;21097;-63
2023/08/10 07:23:17;;;;;;;4.40;2.00;;;;;;;27.48;32.77;100846.00;1751503;81;21157;-64
2023/08/10 07:25:46;;;;;;;4.35;2.10;;;;;;;27.75;32.36;100832.17;1751437;82;21031;-64
2023/08/10 07:28:16;;;;;;;4.95;2.60;;;;;;;27.75;32.36;100832.17;1751427;81;21027;-63
2023/08/10 07:30:47;;;;;;;6.70;2.98;;;;;;;27.97;32.11;100843.45;1751278;81;21652;-63
2023/08/10 07:33:16;;;;;;;5.40;2.20;;;;;;;28.13;31.65;100841.25;1751467;82;21549;-65
2023/08/10 07:35:47;;;;;;;3.87;2.15;;;;;;;28.21;30.76;100836.34;1751387;82;21003;-64
2023/08/10 07:38:16;;;;;;;2.72;2.00;;;;;;;28.28;30.57;100838.23;1751497;82;21027;-65
2023/08/10 07:40:46;;;;;;;4.87;1.98;;;;;;;28.51;30.39;100844.34;1751428;81;21035;-64
2023/08/10 07:43:15;;;;;;;5.53;2.12;;;;;;;28.73;29.52;100843.16;1751748;81;21127;-63
2023/08/10 07:45:44;;;;;;;3.30;1.92;;;;;;;28.72;29.49;100842.05;1745331;81;21087;-64
2023/08/10 07:48:13;;;;;;;3.87;1.87;;;;;;;28.71;29.65;100846.02;1742762;82;21552;-64
2023/08/10 07:50:43;;;;;;;6.15;2.62;;;;;;;28.76;29.19;100844.52;1742945;82;21043;-65
2023/08/10 07:53:13;;;;;;;7.65;3.00;;;;;;;28.75;29.34;100834.39;1742981;82;21078;-63
2023/08/10 07:55:42;;;;;;;4.92;2.37;;;;;;;28.65;29.58;100836.81;1742955;82;21039;-62
2023/08/10 07:58:14;;;;;;;4.70;2.25;;;;;;;28.58;29.91;100841.14;1744240;80;21058;-67
2023/08/10 08:00:42;;;;;;;4.35;2.37;;;;;;;28.60;29.79;100841.09;1745539;80;21037;-65
2023/08/10 08:03:12;;;;;;;8.43;3.40;;;;;;;28.55;29.61;100838.36;1748887;81;21064;-66
2023/08/10 08:05:41;;;;;;;4.42;2.10;;;;;;;28.38;29.76;100836.67;1737783;81;21029;-68
2023/08/10 08:08:11;;;;;;;4.37;2.15;;;;;;;28.23;29.82;100836.87;1749371;81;21044;-66
2023/08/10 08:10:41;;;;;;;7.67;2.75;;;;;;;28.17;30.05;100829.07;1744191;82;21449;-65
2023/08/10 08:13:11;;;;;;;6.25;3.17;;;;;;;28.20;29.97;100829.87;1744405;82;21064;-65
2023/08/10 08:15:43;;;;;;;7.78;2.45;;;;;;;28.16;29.38;100825.15;1747045;81;20990;-67
2023/08/10 08:18:45;;;;;;;5.78;3.15;;;;;;;28.11;30.29;100831.70;1758191;81;21021;-65
2023/08/10 08:21:16;;;;;;;3.50;2.15;;;;;;;28.25;30.03;100823.34;1758263;81;21481;-66
2023/08/10 08:23:46;;;;;;;2.75;2.00;;;;;;;28.40;28.99;100825.92;1758274;81;21487;-67
2023/08/10 08:26:14;;;;;;;4.65;2.10;;;;;;;28.43;29.05;100825.88;1757868;81;21081;-66
2023/08/10 08:28:44;;;;;;;5.33;2.22;;;;;;;28.57;28.77;100820.56;1758255;81;21441;-65
2023/08/10 08:31:14;;;;;;;3.65;1.95;;;;;;;28.67;27.75;100817.59;1758225;81;21025;-65
2023/08/10 08:33:42;;;;;;;6.20;2.00;;;;;;;28.53;27.80;100811.61;1749455;81;21507;-68
2023/08/10 08:36:11;;;;;;;2.37;1.90;;;;;;;28.50;28.28;100814.48;1744291;82;21029;-66
2023/08/10 08:38:41;;;;;;;3.20;1.90;;;;;;;28.50;28.14;100820.12;1744267;82;21068;-66
2023/08/10 08:41:12;;;;;;;2.67;1.95;;;;;;;28.55;28.66;100819.20;1744289;82;21453;-65
2023/08/10 08:43:43;;;;;;;5.78;2.10;;;;;;;28.60;28.55;100814.30;1744287;82;21029;-65
2023/08/10 08:46:12;;;;;;;5.67;2.60;;;;;;;28.80;28.75;100815.12;1744063;81;21028;-65
2023/08/10 08:48:42;;;;;;;3.55;2.00;;;;;;;28.99;28.49;100814.52;1744443;82;21088;-65
2023/08/10 08:51:11;;;;;;;6.17;2.20;;;;;;;28.92;28.57;100813.52;1747679;82;21184;-66
2023/08/10 08:53:39;;;;;;;5.10;2.55;;;;;;;28.93;28.82;100817.17;1744383;82;21025;-66
2023/08/10 08:56:10;;;;;;;6.75;2.47;;;;;;;29.04;28.36;100807.36;1744344;82;21025;-65
2023/08/10 08:58:40;;;;;;;2.98;2.00;;;;;;;29.00;28.81;100807.72;1744176;82;21029;-64
2023/08/10 09:01:09;;;;;;;4.22;2.05;;;;;;;28.96;28.92;100812.31;1744346;82;21555;-66
2023/08/10 09:03:37;;;;;;;3.85;2.12;;;;;;;28.93;28.48;100809.55;1744314;82;21040;-63
2023/08/10 09:06:07;;;;;;;4.75;2.17;;;;;;;28.92;28.39;100805.63;1744031;82;21092;-65
2023/08/10 09:08:38;;;;;;;3.60;2.47;;;;;;;28.81;28.68;100807.77;1760870;81;21123;-66
2023/08/10 09:11:08;;;;;;;3.33;2.15;;;;;;;28.73;29.09;100802.26;1758059;81;21001;-66
2023/08/10 09:13:36;;;;;;;4.55;2.10;;;;;;;28.70;28.67;100804.29;1737308;81;21469;-66
2023/08/10 09:16:14;;;;;;;6.08;2.35;;;;;;;28.54;28.72;100802.85;1757877;81;21154;-65
2023/08/10 09:18:44;;;;;;;4.33;2.60;;;;;;;28.37;28.89;100799.19;1758081;80;21049;-66
2023/08/10 09:21:16;;;;;;;3.72;2.40;;;;;;;28.27;29.32;100795.12;1758128;81;21053;-65
2023/08/10 09:23:52;;;;;;;4.12;1.98;;;;;;;28.20;29.14;100795.22;1757930;81;21483;-65
2023/08/10 09:26:22;;;;;;;7.15;2.00;;;;;;;28.10;29.39;100794.80;1758033;81;21080;-63
2023/08/10 09:28:51;;;;;;;2.75;1.82;;;;;;;27.92;29.22;100802.08;1757900;81;21073;-64
2023/08/10 09:31:26;;;;;;;4.05;2.10;;;;;;;27.68;29.46;100801.30;1758016;81;21524;-62
2023/08/10 09:33:57;;;;;;;3.70;2.37;;;;;;;27.30;29.89;100781.45;1757895;81;21539;-64
2023/08/10 09:36:28;;;;;;;5.22;1.98;;;;;;;27.30;29.89;100781.45;1758241;80;21002;-62
2023/08/10 09:38:57;;;;;;;4.85;1.80;;;;;;;27.12;30.43;100793.48;1758210;81;21009;-63
2023/08/10 09:41:27;;;;;;;7.20;2.80;;;;;;;26.94;30.64;100795.05;1757840;81;21029;-63
2023/08/10 09:43:57;;;;;;;8.40;2.47;;;;;;;26.74;31.75;100793.29;1757882;81;20990;-63
2023/08/10 09:46:29;;;;;;;3.87;2.20;;;;;;;26.63;31.66;100794.48;1758043;81;21071;-64
2023/08/10 09:48:58;;;;;;;3.52;2.12;;;;;;;26.53;31.70;100795.98;1758001;81;21547;-63
2023/08/10 09:51:28;;;;;;;3.87;2.62;;;;;;;26.55;31.65;100799.34;1713694;81;21030;-63
2023/08/10 09:53:58;;;;;;;4.42;2.80;;;;;;;26.58;31.25;100807.19;1712823;81;21132;-63
2023/08/10 09:56:27;;;;;;;4.40;1.95;;;;;;;26.57;31.34;100797.64;1758078;81;21442;-64
2023/08/10 09:58:56;;;;;;;3.85;1.95;;;;;;;26.59;31.32;100795.38;1758179;81;21141;-64
2023/08/10 10:01:25;;;;;;;5.60;1.85;;;;;;;26.56;31.43;100800.17;1758325;81;21057;-63
2023/08/10 10:03:54;;;;;;;2.95;2.10;;;;;;;26.48;31.28;100790.41;1758207;80;21033;-63
2023/08/10 10:06:24;;;;;;;3.10;2.10;;;;;;;26.41;31.41;100795.53;1673442;85;21092;-64
2023/08/10 10:08:56;;;;;;;3.25;2.05;;;;;;;26.33;31.46;100789.97;1635365;86;21047;-62
2023/08/10 10:11:25;;;;;;;4.60;2.67;;;;;;;26.29;31.61;100787.44;1657080;86;21114;-63
2023/08/10 10:13:53;;;;;;;3.92;1.80;;;;;;;26.30;32.00;100788.28;1656822;86;21542;-64
2023/08/10 10:16:23;;;;;;;3.45;1.80;;;;;;;26.36;32.52;100778.14;1657163;86;21126;-63
2023/08/10 10:18:54;;;;;;;5.12;2.83;;;;;;;26.43;32.10;100782.02;1656966;86;21051;-64
2023/08/10 10:21:23;;;;;;;4.65;2.27;;;;;;;26.49;31.63;100779.44;1657210;86;21090;-64
2023/08/10 10:23:55;;;;;;;2.60;1.90;;;;;;;26.49;31.43;100775.22;1675474;82;21314;-65
2023/08/10 10:26:22;;;;;;;4.20;1.80;;;;;;;26.50;31.22;100778.31;1742875;82;21093;-63
2023/08/10 10:29:16;;;;;;;2.72;1.77;;;;;;;26.48;30.91;100780.58;1742879;82;21050;-65
2023/08/10 10:31:45;;;;;;;4.05;1.90;;;;;;;26.49;30.95;100772.41;1742894;82;21106;-62
2023/08/10 10:34:18;;;;;;;3.35;1.90;;;;;;;26.41;30.60;100768.27;1742590;82;21118;-62
2023/08/10 10:36:46;;;;;;;5.75;3.30;;;;;;;26.33;31.02;100772.27;1742678;82;21102;-62
2023/08/10 10:39:20;;;;;;;5.85;3.10;;;;;;;26.31;31.11;100766.08;1742745;82;21059;-63
2023/08/10 10:41:50;;;;;;;4.62;1.80;;;;;;;26.34;31.35;100771.14;1742499;82;21123;-62
2023/08/10 10:44:19;;;;;;;4.12;1.85;;;;;;;26.37;31.26;100771.39;1696786;82;22101;-62
2023/08/10 10:46:49;;;;;;;3.12;1.85;;;;;;;26.40;31.16;100767.16;1742604;82;21050;-61
2023/08/10 10:49:20;;;;;;;3.72;1.95;;;;;;;26.40;31.01;100764.34;1742666;82;21026;-63
2023/08/10 10:51:54;;;;;;;3.50;1.70;;;;;;;26.38;30.42;100761.83;1742806;82;21064;-62
2023/08/10 10:54:25;;;;;;;2.85;2.10;;;;;;;26.34;30.40;100761.30;1742776;82;21023;-62
2023/08/10 10:56:55;;;;;;;3.85;1.92;;;;;;;26.18;30.61;100764.20;1742781;82;21082;-69
2023/08/10 10:59:25;;;;;;;6.03;2.15;;;;;;;26.15;30.92;100765.36;1742745;82;21061;-63
2023/08/10 11:01:54;;;;;;;3.47;2.17;;;;;;;26.12;31.09;100763.98;1742674;82;21035;-63
2023/08/10 11:04:24;;;;;;;6.85;3.60;;;;;;;26.11;30.94;100757.25;1742570;82;21487;-64
2023/08/10 11:07:00;;;;;;;2.47;2.22;;;;;;;26.09;31.41;100751.92;1741456;82;21049;-63
2023/08/10 11:09:29;;;;;;;3.42;1.82;;;;;;;26.14;31.47;100754.69;1746786;82;21084;-65
2023/08/10 11:11:58;;;;;;;6.08;2.30;;;;;;;26.19;31.29;100748.19;1747014;82;21084;-65
2023/08/10 11:14:32;;;;;;;5.25;2.20;;;;;;;26.17;30.97;100740.06;1740102;81;21045;-63
2023/08/10 11:17:00;;;;;;;3.30;2.10;;;;;;;26.10;31.14;100745.73;1746599;82;21029;-64
2023/08/10 11:19:30;;;;;;;3.42;2.25;;;;;;;26.10;31.43;100733.09;1736665;82;21473;-63
2023/08/10 11:22:02;;;;;;;3.60;2.10;;;;;;;26.08;31.95;100723.56;1746739;82;21546;-65
2023/08/10 11:24:32;;;;;;;5.35;2.42;;;;;;;26.10;31.03;100725.52;1747041;82;21429;-63
2023/08/10 11:27:01;;;;;;;3.70;2.60;;;;;;;26.02;31.49;100727.55;1736738;82;21456;-63
2023/08/10 11:29:32;;;;;;;4.55;2.40;;;;;;;26.00;31.70;100728.94;1746928;82;21082;-65
2023/08/10 11:32:02;;;;;;;5.30;2.40;;;;;;;25.95;31.45;100727.00;1736636;82;21097;-64
2023/08/10 11:34:34;;;;;;;3.62;2.20;;;;;;;25.87;31.86;100728.46;1736586;82;21093;-65
2023/08/10 11:37:04;;;;;;;4.22;2.25;;;;;;;25.88;31.98;100731.55;1736611;82;21474;-61
2023/08/10 11:39:35;;;;;;;5.67;2.83;;;;;;;25.91;31.87;100727.31;1746837;82;21068;-64